sensor_id;sensor_type;location;lat;lon;timestamp;temperature;humidity
5899;DHT22;2975;50.956;6.962;2023-05-14T00:01:51;11.60;99.90
5899;DHT22;2975;50.956;6.962;2023-05-14T00:04:17;11.60;99.90
5899;DHT22;2975;50.956;6.962;2023-05-14T00:06:44;11.50;99.90
5899;DHT22;2975;50.956;6.962;2023-05-14T00:09:10;11.50;99.90
5899;DHT22;2975;50.956;6.962;2023-05-14T00:11:36;11.50;99.90
5899;DHT22;2975;50.956;6.962;2023-05-14T00:14:01;11.60;99.90
5899;DHT22;2975;50.956;6.962;2023-05-14T00:16:27;11.50;99.90
5899;DHT22;2975;50.956;6.962;2023-05-14T00:18:52;11.50;99.90
5899;DHT22;2975;50.956;6.962;2023-05-14T00:21:18;11.50;99.90
5899;DHT22;2975;50.956;6.962;2023-05-14T00:23:44;11.50;99.90
5899;DHT22;2975;50.956;6.962;2023-05-14T00:26:09;11.40;99.90
5899;DHT22;2975;50.956;6.962;2023-05-14T00:28:35;11.30;99.90
5899;DHT22;2975;50.956;6.962;2023-05-14T00:31:01;11.30;99.90
5899;DHT22;2975;50.956;6.962;2023-05-14T00:33:26;11.30;99.90
5899;DHT22;2975;50.956;6.962;2023-05-14T00:35:52;11.20;99.90
5899;DHT22;2975;50.956;6.962;2023-05-14T00:38:17;11.20;99.90
5899;DHT22;2975;50.956;6.962;2023-05-14T00:40:44;11.20;99.90
5899;DHT22;2975;50.956;6.962;2023-05-14T00:43:19;11.30;99.90
5899;DHT22;2975;50.956;6.962;2023-05-14T00:45:45;11.20;99.90
5899;DHT22;2975;50.956;6.962;2023-05-14T00:48:12;11.20;99.90
5899;DHT22;2975;50.956;6.962;2023-05-14T00:50:38;11.10;99.90
5899;DHT22;2975;50.956;6.962;2023-05-14T00:53:03;11.10;99.90
5899;DHT22;2975;50.956;6.962;2023-05-14T00:55:37;11.10;99.90
5899;DHT22;2975;50.956;6.962;2023-05-14T00:58:08;11.10;99.90
5899;DHT22;2975;50.956;6.962;2023-05-14T01:00:34;11.10;99.90
5899;DHT22;2975;50.956;6.962;2023-05-14T01:03:01;11.00;99.90
5899;DHT22;2975;50.956;6.962;2023-05-14T01:11:13;11.00;99.90
5899;DHT22;2975;50.956;6.962;2023-05-14T01:13:51;11.00;99.90
5899;DHT22;2975;50.956;6.962;2023-05-14T01:16:18;10.90;99.90
5899;DHT22;2975;50.956;6.962;2023-05-14T01:18:45;10.90;99.90
5899;DHT22;2975;50.956;6.962;2023-05-14T01:21:41;10.80;99.90
5899;DHT22;2975;50.956;6.962;2023-05-14T01:24:07;10.80;99.90
5899;DHT22;2975;50.956;6.962;2023-05-14T01:26:34;10.80;99.90
5899;DHT22;2975;50.956;6.962;2023-05-14T01:29:07;10.80;99.90
5899;DHT22;2975;50.956;6.962;2023-05-14T01:31:37;10.80;99.90
5899;DHT22;2975;50.956;6.962;2023-05-14T01:34:04;10.70;99.90
5899;DHT22;2975;50.956;6.962;2023-05-14T01:36:31;10.70;99.90
5899;DHT22;2975;50.956;6.962;2023-05-14T01:38:59;10.70;99.90
5899;DHT22;2975;50.956;6.962;2023-05-14T01:41:25;10.70;99.90
5899;DHT22;2975;50.956;6.962;2023-05-14T01:43:52;10.70;99.90
5899;DHT22;2975;50.956;6.962;2023-05-14T01:46:18;10.70;99.90
5899;DHT22;2975;50.956;6.962;2023-05-14T01:48:44;10.80;99.90
5899;DHT22;2975;50.956;6.962;2023-05-14T01:51:10;10.80;99.90
5899;DHT22;2975;50.956;6.962;2023-05-14T01:53:35;10.80;99.90
5899;DHT22;2975;50.956;6.962;2023-05-14T01:56:01;10.80;99.90
5899;DHT22;2975;50.956;6.962;2023-05-14T01:58:27;10.70;99.90
5899;DHT22;2975;50.956;6.962;2023-05-14T02:00:53;10.70;99.90
5899;DHT22;2975;50.956;6.962;2023-05-14T02:03:18;10.70;99.90
5899;DHT22;2975;50.956;6.962;2023-05-14T02:05:44;10.70;99.90
5899;DHT22;2975;50.956;6.962;2023-05-14T02:08:09;10.70;99.90
5899;DHT22;2975;50.956;6.962;2023-05-14T02:10:35;10.70;99.90
5899;DHT22;2975;50.956;6.962;2023-05-14T02:13:02;10.60;99.90
5899;DHT22;2975;50.956;6.962;2023-05-14T02:15:28;10.60;99.90
5899;DHT22;2975;50.956;6.962;2023-05-14T02:17:53;10.60;99.90
5899;DHT22;2975;50.956;6.962;2023-05-14T02:20:19;10.60;99.90
5899;DHT22;2975;50.956;6.962;2023-05-14T02:22:45;10.60;99.90
5899;DHT22;2975;50.956;6.962;2023-05-14T02:25:10;10.70;99.90
5899;DHT22;2975;50.956;6.962;2023-05-14T02:27:36;10.70;99.90
5899;DHT22;2975;50.956;6.962;2023-05-14T02:30:02;10.70;99.90
5899;DHT22;2975;50.956;6.962;2023-05-14T02:32:28;10.70;99.90
5899;DHT22;2975;50.956;6.962;2023-05-14T02:34:54;10.80;99.90
5899;DHT22;2975;50.956;6.962;2023-05-14T02:37:19;10.90;99.90
5899;DHT22;2975;50.956;6.962;2023-05-14T02:39:45;10.90;99.90
5899;DHT22;2975;50.956;6.962;2023-05-14T02:42:11;10.90;99.90
5899;DHT22;2975;50.956;6.962;2023-05-14T02:44:36;10.90;99.90
5899;DHT22;2975;50.956;6.962;2023-05-14T02:47:02;11.00;99.90
5899;DHT22;2975;50.956;6.962;2023-05-14T02:49:28;10.90;99.90
5899;DHT22;2975;50.956;6.962;2023-05-14T02:51:53;10.80;99.90
5899;DHT22;2975;50.956;6.962;2023-05-14T02:54:19;10.70;99.90
5899;DHT22;2975;50.956;6.962;2023-05-14T02:56:44;10.70;99.90
5899;DHT22;2975;50.956;6.962;2023-05-14T02:59:10;10.70;99.90
5899;DHT22;2975;50.956;6.962;2023-05-14T03:01:36;10.70;99.90
5899;DHT22;2975;50.956;6.962;2023-05-14T03:04:02;10.70;99.90
5899;DHT22;2975;50.956;6.962;2023-05-14T03:06:27;10.70;99.90
5899;DHT22;2975;50.956;6.962;2023-05-14T03:08:53;10.60;99.90
5899;DHT22;2975;50.956;6.962;2023-05-14T03:11:19;10.50;99.90
5899;DHT22;2975;50.956;6.962;2023-05-14T03:13:45;10.40;99.90
5899;DHT22;2975;50.956;6.962;2023-05-14T03:16:11;10.30;99.90
5899;DHT22;2975;50.956;6.962;2023-05-14T03:18:37;10.30;99.90
5899;DHT22;2975;50.956;6.962;2023-05-14T03:21:03;10.20;99.90
5899;DHT22;2975;50.956;6.962;2023-05-14T03:23:28;10.10;99.90
5899;DHT22;2975;50.956;6.962;2023-05-14T03:25:56;10.10;99.90
5899;DHT22;2975;50.956;6.962;2023-05-14T03:28:22;10.10;99.90
5899;DHT22;2975;50.956;6.962;2023-05-14T03:30:47;10.10;99.90
5899;DHT22;2975;50.956;6.962;2023-05-14T03:33:13;10.10;99.90
5899;DHT22;2975;50.956;6.962;2023-05-14T03:35:38;10.10;99.90
5899;DHT22;2975;50.956;6.962;2023-05-14T03:38:04;10.10;99.90
5899;DHT22;2975;50.956;6.962;2023-05-14T03:40:30;10.00;99.90
5899;DHT22;2975;50.956;6.962;2023-05-14T03:42:56;10.00;99.90
5899;DHT22;2975;50.956;6.962;2023-05-14T03:45:21;9.90;99.90
5899;DHT22;2975;50.956;6.962;2023-05-14T03:47:47;10.00;99.90
5899;DHT22;2975;50.956;6.962;2023-05-14T03:50:12;10.00;99.90
5899;DHT22;2975;50.956;6.962;2023-05-14T03:52:38;10.10;99.90
5899;DHT22;2975;50.956;6.962;2023-05-14T03:55:05;10.10;99.90
5899;DHT22;2975;50.956;6.962;2023-05-14T03:57:30;10.20;99.90
5899;DHT22;2975;50.956;6.962;2023-05-14T03:59:56;10.20;99.90
5899;DHT22;2975;50.956;6.962;2023-05-14T04:02:22;10.10;99.90
5899;DHT22;2975;50.956;6.962;2023-05-14T04:04:47;10.20;99.90
5899;DHT22;2975;50.956;6.962;2023-05-14T04:07:13;10.20;99.90
5899;DHT22;2975;50.956;6.962;2023-05-14T04:09:38;10.20;99.90
5899;DHT22;2975;50.956;6.962;2023-05-14T04:12:04;10.10;99.90
5899;DHT22;2975;50.956;6.962;2023-05-14T04:14:30;10.10;99.90
5899;DHT22;2975;50.956;6.962;2023-05-14T04:16:55;10.10;99.90
5899;DHT22;2975;50.956;6.962;2023-05-14T04:19:21;10.20;99.90
5899;DHT22;2975;50.956;6.962;2023-05-14T04:21:47;10.30;99.90
5899;DHT22;2975;50.956;6.962;2023-05-14T04:24:12;10.40;99.90
5899;DHT22;2975;50.956;6.962;2023-05-14T04:26:38;10.40;99.90
5899;DHT22;2975;50.956;6.962;2023-05-14T04:29:03;10.50;99.90
5899;DHT22;2975;50.956;6.962;2023-05-14T04:31:29;10.50;99.90
5899;DHT22;2975;50.956;6.962;2023-05-14T04:33:56;10.60;99.90
5899;DHT22;2975;50.956;6.962;2023-05-14T04:36:21;10.70;99.90
5899;DHT22;2975;50.956;6.962;2023-05-14T04:38:47;10.90;99.90
5899;DHT22;2975;50.956;6.962;2023-05-14T04:41:12;11.00;99.90
5899;DHT22;2975;50.956;6.962;2023-05-14T04:43:38;11.10;99.90
5899;DHT22;2975;50.956;6.962;2023-05-14T04:46:04;11.30;99.90
5899;DHT22;2975;50.956;6.962;2023-05-14T04:48:30;11.40;99.90
5899;DHT22;2975;50.956;6.962;2023-05-14T04:50:56;11.60;99.90
5899;DHT22;2975;50.956;6.962;2023-05-14T04:53:21;12.20;99.90
5899;DHT22;2975;50.956;6.962;2023-05-14T04:55:47;12.90;99.90
5899;DHT22;2975;50.956;6.962;2023-05-14T04:58:12;14.10;99.90
5899;DHT22;2975;50.956;6.962;2023-05-14T05:00:38;15.70;99.90
5899;DHT22;2975;50.956;6.962;2023-05-14T05:03:04;17.10;99.90
5899;DHT22;2975;50.956;6.962;2023-05-14T05:05:30;18.10;99.90
5899;DHT22;2975;50.956;6.962;2023-05-14T05:07:55;19.10;99.90
5899;DHT22;2975;50.956;6.962;2023-05-14T05:10:21;20.50;99.90
5899;DHT22;2975;50.956;6.962;2023-05-14T05:12:47;21.30;98.10
5899;DHT22;2975;50.956;6.962;2023-05-14T05:15:12;22.20;93.70
5899;DHT22;2975;50.956;6.962;2023-05-14T05:17:38;22.80;93.70
5899;DHT22;2975;50.956;6.962;2023-05-14T05:20:04;22.90;90.80
5899;DHT22;2975;50.956;6.962;2023-05-14T05:22:32;23.30;92.00
5899;DHT22;2975;50.956;6.962;2023-05-14T05:24:58;24.60;84.20
5899;DHT22;2975;50.956;6.962;2023-05-14T05:27:24;25.20;79.80
5899;DHT22;2975;50.956;6.962;2023-05-14T05:29:50;25.60;77.50
5899;DHT22;2975;50.956;6.962;2023-05-14T05:32:16;26.50;73.70
5899;DHT22;2975;50.956;6.962;2023-05-14T05:34:41;27.10;67.10
5899;DHT22;2975;50.956;6.962;2023-05-14T05:37:07;26.30;67.10
5899;DHT22;2975;50.956;6.962;2023-05-14T05:39:37;26.70;72.10
5899;DHT22;2975;50.956;6.962;2023-05-14T05:42:04;26.90;64.70
5899;DHT22;2975;50.956;6.962;2023-05-14T05:44:30;26.30;65.60
5899;DHT22;2975;50.956;6.962;2023-05-14T05:46:56;26.00;66.20
5899;DHT22;2975;50.956;6.962;2023-05-14T05:49:22;26.30;66.60
5899;DHT22;2975;50.956;6.962;2023-05-14T05:51:47;27.80;64.10
5899;DHT22;2975;50.956;6.962;2023-05-14T05:54:13;29.30;57.30
5899;DHT22;2975;50.956;6.962;2023-05-14T05:56:39;28.60;58.10
5899;DHT22;2975;50.956;6.962;2023-05-14T05:59:04;29.30;56.30
5899;DHT22;2975;50.956;6.962;2023-05-14T06:01:30;30.20;56.00
5899;DHT22;2975;50.956;6.962;2023-05-14T06:03:56;29.60;53.80
5899;DHT22;2975;50.956;6.962;2023-05-14T06:06:22;28.40;56.20
5899;DHT22;2975;50.956;6.962;2023-05-14T06:08:47;28.80;57.00
5899;DHT22;2975;50.956;6.962;2023-05-14T06:11:13;29.90;53.50
5899;DHT22;2975;50.956;6.962;2023-05-14T06:13:39;29.90;52.60
5899;DHT22;2975;50.956;6.962;2023-05-14T06:16:05;29.70;51.20
5899;DHT22;2975;50.956;6.962;2023-05-14T06:18:30;28.80;51.70
5899;DHT22;2975;50.956;6.962;2023-05-14T06:20:57;28.00;53.40
5899;DHT22;2975;50.956;6.962;2023-05-14T06:23:24;26.90;55.30
5899;DHT22;2975;50.956;6.962;2023-05-14T06:25:51;26.50;57.20
5899;DHT22;2975;50.956;6.962;2023-05-14T06:28:16;26.30;57.80
5899;DHT22;2975;50.956;6.962;2023-05-14T06:30:42;24.80;58.90
5899;DHT22;2975;50.956;6.962;2023-05-14T06:33:08;23.00;63.90
5899;DHT22;2975;50.956;6.962;2023-05-14T06:35:33;21.30;72.20
5899;DHT22;2975;50.956;6.962;2023-05-14T06:37:59;20.20;82.10
5899;DHT22;2975;50.956;6.962;2023-05-14T06:40:25;19.40;90.00
5899;DHT22;2975;50.956;6.962;2023-05-14T06:42:50;18.80;92.60
5899;DHT22;2975;50.956;6.962;2023-05-14T06:45:16;18.40;95.10
5899;DHT22;2975;50.956;6.962;2023-05-14T06:47:41;17.90;97.30
5899;DHT22;2975;50.956;6.962;2023-05-14T06:50:07;17.60;99.00
5899;DHT22;2975;50.956;6.962;2023-05-14T06:52:33;17.30;99.90
5899;DHT22;2975;50.956;6.962;2023-05-14T06:54:59;17.10;99.90
5899;DHT22;2975;50.956;6.962;2023-05-14T06:57:24;16.90;99.90
5899;DHT22;2975;50.956;6.962;2023-05-14T06:59:50;17.00;99.90
5899;DHT22;2975;50.956;6.962;2023-05-14T07:02:15;17.10;99.90
5899;DHT22;2975;50.956;6.962;2023-05-14T07:04:41;17.00;99.90
5899;DHT22;2975;50.956;6.962;2023-05-14T07:07:06;16.90;99.90
5899;DHT22;2975;50.956;6.962;2023-05-14T07:09:33;16.90;99.90
5899;DHT22;2975;50.956;6.962;2023-05-14T07:11:58;16.90;99.90
5899;DHT22;2975;50.956;6.962;2023-05-14T07:14:24;16.90;99.90
5899;DHT22;2975;50.956;6.962;2023-05-14T07:16:50;16.90;99.90
5899;DHT22;2975;50.956;6.962;2023-05-14T07:19:15;17.00;99.90
5899;DHT22;2975;50.956;6.962;2023-05-14T07:21:41;17.00;99.90
5899;DHT22;2975;50.956;6.962;2023-05-14T07:24:06;17.00;99.90
5899;DHT22;2975;50.956;6.962;2023-05-14T07:26:32;16.90;99.90
5899;DHT22;2975;50.956;6.962;2023-05-14T07:28:57;17.00;99.90
5899;DHT22;2975;50.956;6.962;2023-05-14T07:31:23;17.20;99.90
5899;DHT22;2975;50.956;6.962;2023-05-14T07:33:49;17.40;99.90
5899;DHT22;2975;50.956;6.962;2023-05-14T07:36:14;17.50;99.90
5899;DHT22;2975;50.956;6.962;2023-05-14T07:38:40;17.60;99.90
5899;DHT22;2975;50.956;6.962;2023-05-14T07:41:06;17.60;99.20
5899;DHT22;2975;50.956;6.962;2023-05-14T07:43:32;17.80;97.90
5899;DHT22;2975;50.956;6.962;2023-05-14T07:45:57;18.00;97.00
5899;DHT22;2975;50.956;6.962;2023-05-14T07:48:23;18.10;96.20
5899;DHT22;2975;50.956;6.962;2023-05-14T07:50:49;18.20;95.60
5899;DHT22;2975;50.956;6.962;2023-05-14T07:53:15;18.20;95.10
5899;DHT22;2975;50.956;6.962;2023-05-14T07:55:41;18.20;94.20
5899;DHT22;2975;50.956;6.962;2023-05-14T07:58:08;18.10;93.90
5899;DHT22;2975;50.956;6.962;2023-05-14T08:00:34;18.10;93.50
5899;DHT22;2975;50.956;6.962;2023-05-14T08:02:59;18.10;94.00
5899;DHT22;2975;50.956;6.962;2023-05-14T08:05:25;18.30;92.10
5899;DHT22;2975;50.956;6.962;2023-05-14T08:07:51;18.40;91.70
5899;DHT22;2975;50.956;6.962;2023-05-14T08:10:16;18.50;90.90
5899;DHT22;2975;50.956;6.962;2023-05-14T08:12:42;18.60;91.20
5899;DHT22;2975;50.956;6.962;2023-05-14T08:15:08;18.70;91.00
5899;DHT22;2975;50.956;6.962;2023-05-14T08:17:34;18.70;91.20
5899;DHT22;2975;50.956;6.962;2023-05-14T08:20:00;18.70;91.90
5899;DHT22;2975;50.956;6.962;2023-05-14T08:22:26;18.80;92.50
5899;DHT22;2975;50.956;6.962;2023-05-14T08:24:51;18.70;93.00
5899;DHT22;2975;50.956;6.962;2023-05-14T08:27:17;18.90;93.10
5899;DHT22;2975;50.956;6.962;2023-05-14T08:29:42;18.90;92.90
5899;DHT22;2975;50.956;6.962;2023-05-14T08:32:08;18.90;92.80
5899;DHT22;2975;50.956;6.962;2023-05-14T08:34:34;18.90;93.00
5899;DHT22;2975;50.956;6.962;2023-05-14T08:37:00;19.00;91.60
5899;DHT22;2975;50.956;6.962;2023-05-14T08:39:25;19.10;90.60
5899;DHT22;2975;50.956;6.962;2023-05-14T08:41:51;19.10;90.40
5899;DHT22;2975;50.956;6.962;2023-05-14T08:44:18;19.10;90.10
5899;DHT22;2975;50.956;6.962;2023-05-14T08:46:45;19.30;90.00
5899;DHT22;2975;50.956;6.962;2023-05-14T08:51:51;19.50;90.00
5899;DHT22;2975;50.956;6.962;2023-05-14T08:54:17;19.50;88.10
5899;DHT22;2975;50.956;6.962;2023-05-14T08:56:44;19.50;88.20
5899;DHT22;2975;50.956;6.962;2023-05-14T08:59:12;19.50;88.60
5899;DHT22;2975;50.956;6.962;2023-05-14T09:01:40;19.60;88.90
5899;DHT22;2975;50.956;6.962;2023-05-14T09:04:08;19.70;88.90
5899;DHT22;2975;50.956;6.962;2023-05-14T09:06:37;19.80;89.00
5899;DHT22;2975;50.956;6.962;2023-05-14T09:09:03;19.90;88.90
5899;DHT22;2975;50.956;6.962;2023-05-14T09:11:29;20.10;86.90
5899;DHT22;2975;50.956;6.962;2023-05-14T09:13:54;20.00;84.60
5899;DHT22;2975;50.956;6.962;2023-05-14T09:16:20;20.10;85.20
5899;DHT22;2975;50.956;6.962;2023-05-14T09:18:46;20.10;84.50
5899;DHT22;2975;50.956;6.962;2023-05-14T09:21:13;20.10;84.90
5899;DHT22;2975;50.956;6.962;2023-05-14T09:23:41;20.10;85.70
5899;DHT22;2975;50.956;6.962;2023-05-14T09:26:08;20.20;85.50
5899;DHT22;2975;50.956;6.962;2023-05-14T09:28:33;20.30;84.10
5899;DHT22;2975;50.956;6.962;2023-05-14T09:30:59;20.40;83.20
5899;DHT22;2975;50.956;6.962;2023-05-14T09:33:27;20.40;82.10
5899;DHT22;2975;50.956;6.962;2023-05-14T09:36:02;20.40;81.30
5899;DHT22;2975;50.956;6.962;2023-05-14T09:38:31;20.50;79.60
5899;DHT22;2975;50.956;6.962;2023-05-14T09:40:58;20.50;80.60
5899;DHT22;2975;50.956;6.962;2023-05-14T09:43:24;20.60;80.20
5899;DHT22;2975;50.956;6.962;2023-05-14T09:45:51;20.70;80.20
5899;DHT22;2975;50.956;6.962;2023-05-14T09:48:16;20.80;79.80
5899;DHT22;2975;50.956;6.962;2023-05-14T09:50:43;20.90;79.10
5899;DHT22;2975;50.956;6.962;2023-05-14T09:53:09;20.70;80.20
5899;DHT22;2975;50.956;6.962;2023-05-14T09:55:36;20.80;80.00
5899;DHT22;2975;50.956;6.962;2023-05-14T09:58:02;20.80;80.00
5899;DHT22;2975;50.956;6.962;2023-05-14T10:00:30;20.80;82.00
5899;DHT22;2975;50.956;6.962;2023-05-14T10:02:57;20.90;79.80
5899;DHT22;2975;50.956;6.962;2023-05-14T10:05:23;21.00;79.80
5899;DHT22;2975;50.956;6.962;2023-05-14T10:07:50;20.90;80.20
5899;DHT22;2975;50.956;6.962;2023-05-14T10:10:23;20.80;80.70
5899;DHT22;2975;50.956;6.962;2023-05-14T10:12:54;20.80;81.20
5899;DHT22;2975;50.956;6.962;2023-05-14T10:15:28;21.10;81.60
5899;DHT22;2975;50.956;6.962;2023-05-14T10:17:59;21.20;83.20
5899;DHT22;2975;50.956;6.962;2023-05-14T10:20:26;21.00;83.20
5899;DHT22;2975;50.956;6.962;2023-05-14T10:22:53;20.90;82.70
5899;DHT22;2975;50.956;6.962;2023-05-14T10:25:19;20.50;83.60
5899;DHT22;2975;50.956;6.962;2023-05-14T10:27:45;20.50;83.10
5899;DHT22;2975;50.956;6.962;2023-05-14T10:30:11;20.50;83.30
5899;DHT22;2975;50.956;6.962;2023-05-14T10:32:37;20.60;83.90
5899;DHT22;2975;50.956;6.962;2023-05-14T10:35:15;20.90;83.20
5899;DHT22;2975;50.956;6.962;2023-05-14T10:37:43;21.10;82.80
5899;DHT22;2975;50.956;6.962;2023-05-14T10:40:11;21.00;83.10
5899;DHT22;2975;50.956;6.962;2023-05-14T10:42:37;21.30;82.10
5899;DHT22;2975;50.956;6.962;2023-05-14T10:45:14;21.30;79.80
5899;DHT22;2975;50.956;6.962;2023-05-14T10:47:45;21.30;80.50
5899;DHT22;2975;50.956;6.962;2023-05-14T10:50:13;21.20;80.20
5899;DHT22;2975;50.956;6.962;2023-05-14T10:52:45;21.00;79.60
5899;DHT22;2975;50.956;6.962;2023-05-14T10:55:15;21.00;81.50
5899;DHT22;2975;50.956;6.962;2023-05-14T10:57:43;21.10;81.70
5899;DHT22;2975;50.956;6.962;2023-05-14T11:00:10;21.40;81.70
5899;DHT22;2975;50.956;6.962;2023-05-14T11:02:41;21.70;80.10
5899;DHT22;2975;50.956;6.962;2023-05-14T11:05:09;22.10;79.70
5899;DHT22;2975;50.956;6.962;2023-05-14T11:07:37;22.40;79.90
5899;DHT22;2975;50.956;6.962;2023-05-14T11:10:10;22.50;80.60
5899;DHT22;2975;50.956;6.962;2023-05-14T11:12:38;23.20;77.70
5899;DHT22;2975;50.956;6.962;2023-05-14T11:15:16;23.60;76.50
5899;DHT22;2975;50.956;6.962;2023-05-14T11:17:43;23.60;74.20
5899;DHT22;2975;50.956;6.962;2023-05-14T11:20:10;23.40;73.60
5899;DHT22;2975;50.956;6.962;2023-05-14T11:22:37;23.40;74.00
5899;DHT22;2975;50.956;6.962;2023-05-14T11:25:03;23.20;74.80
5899;DHT22;2975;50.956;6.962;2023-05-14T11:27:30;23.00;75.40
5899;DHT22;2975;50.956;6.962;2023-05-14T11:29:56;23.20;76.00
5899;DHT22;2975;50.956;6.962;2023-05-14T11:32:22;23.50;74.50
5899;DHT22;2975;50.956;6.962;2023-05-14T11:34:48;22.90;75.20
5899;DHT22;2975;50.956;6.962;2023-05-14T11:37:15;23.00;76.20
5899;DHT22;2975;50.956;6.962;2023-05-14T11:39:54;22.80;77.00
5899;DHT22;2975;50.956;6.962;2023-05-14T11:42:21;22.50;77.20
5899;DHT22;2975;50.956;6.962;2023-05-14T11:44:49;22.20;76.10
5899;DHT22;2975;50.956;6.962;2023-05-14T11:47:17;22.20;76.30
5899;DHT22;2975;50.956;6.962;2023-05-14T11:49:43;22.30;76.20
5899;DHT22;2975;50.956;6.962;2023-05-14T11:52:09;22.50;76.30
5899;DHT22;2975;50.956;6.962;2023-05-14T11:54:37;22.70;76.80
5899;DHT22;2975;50.956;6.962;2023-05-14T11:57:17;22.80;68.40
5899;DHT22;2975;50.956;6.962;2023-05-14T11:59:44;22.90;69.40
5899;DHT22;2975;50.956;6.962;2023-05-14T12:02:11;23.30;65.80
5899;DHT22;2975;50.956;6.962;2023-05-14T12:04:38;23.60;65.80
5899;DHT22;2975;50.956;6.962;2023-05-14T12:07:11;23.80;63.90
5899;DHT22;2975;50.956;6.962;2023-05-14T12:09:41;23.60;64.10
5899;DHT22;2975;50.956;6.962;2023-05-14T12:12:08;23.80;63.70
5899;DHT22;2975;50.956;6.962;2023-05-14T12:14:40;23.60;63.00
5899;DHT22;2975;50.956;6.962;2023-05-14T12:17:17;23.30;64.40
5899;DHT22;2975;50.956;6.962;2023-05-14T12:19:45;23.40;64.00
5899;DHT22;2975;50.956;6.962;2023-05-14T12:22:14;23.50;65.90
5899;DHT22;2975;50.956;6.962;2023-05-14T12:24:42;23.50;66.80
5899;DHT22;2975;50.956;6.962;2023-05-14T12:27:09;23.50;67.00
5899;DHT22;2975;50.956;6.962;2023-05-14T12:29:36;23.60;68.20
5899;DHT22;2975;50.956;6.962;2023-05-14T12:32:06;23.70;65.10
5899;DHT22;2975;50.956;6.962;2023-05-14T12:34:34;23.80;66.60
5899;DHT22;2975;50.956;6.962;2023-05-14T12:37:00;23.50;63.60
5899;DHT22;2975;50.956;6.962;2023-05-14T12:39:25;23.50;61.20
5899;DHT22;2975;50.956;6.962;2023-05-14T12:41:51;23.50;61.80
5899;DHT22;2975;50.956;6.962;2023-05-14T12:44:17;23.30;57.80
5899;DHT22;2975;50.956;6.962;2023-05-14T12:46:43;23.00;57.10
5899;DHT22;2975;50.956;6.962;2023-05-14T12:49:08;23.20;57.10
5899;DHT22;2975;50.956;6.962;2023-05-14T12:51:35;23.10;54.00
5899;DHT22;2975;50.956;6.962;2023-05-14T12:54:00;23.10;54.50
5899;DHT22;2975;50.956;6.962;2023-05-14T12:56:26;23.40;53.30
5899;DHT22;2975;50.956;6.962;2023-05-14T12:58:56;23.20;51.00
5899;DHT22;2975;50.956;6.962;2023-05-14T13:01:22;23.10;50.30
5899;DHT22;2975;50.956;6.962;2023-05-14T13:03:48;22.70;50.90
5899;DHT22;2975;50.956;6.962;2023-05-14T13:06:14;22.60;51.30
5899;DHT22;2975;50.956;6.962;2023-05-14T13:08:40;22.70;51.10
5899;DHT22;2975;50.956;6.962;2023-05-14T13:11:05;22.70;49.90
5899;DHT22;2975;50.956;6.962;2023-05-14T13:13:31;22.80;50.70
5899;DHT22;2975;50.956;6.962;2023-05-14T13:15:56;23.00;48.90
5899;DHT22;2975;50.956;6.962;2023-05-14T13:18:22;23.10;49.80
5899;DHT22;2975;50.956;6.962;2023-05-14T13:20:48;23.50;49.90
5899;DHT22;2975;50.956;6.962;2023-05-14T13:23:13;23.50;49.60
5899;DHT22;2975;50.956;6.962;2023-05-14T13:25:39;23.30;48.40
5899;DHT22;2975;50.956;6.962;2023-05-14T13:28:05;23.10;49.40
5899;DHT22;2975;50.956;6.962;2023-05-14T13:30:30;23.00;49.70
5899;DHT22;2975;50.956;6.962;2023-05-14T13:32:57;22.80;49.40
5899;DHT22;2975;50.956;6.962;2023-05-14T13:35:22;22.70;50.10
5899;DHT22;2975;50.956;6.962;2023-05-14T13:37:48;22.50;51.00
5899;DHT22;2975;50.956;6.962;2023-05-14T13:40:14;22.70;51.90
5899;DHT22;2975;50.956;6.962;2023-05-14T13:42:39;22.80;50.60
5899;DHT22;2975;50.956;6.962;2023-05-14T13:45:05;23.10;50.60
5899;DHT22;2975;50.956;6.962;2023-05-14T13:47:31;23.10;49.10
5899;DHT22;2975;50.956;6.962;2023-05-14T13:49:57;23.40;49.30
5899;DHT22;2975;50.956;6.962;2023-05-14T13:52:23;23.40;48.00
5899;DHT22;2975;50.956;6.962;2023-05-14T13:54:49;23.60;48.10
5899;DHT22;2975;50.956;6.962;2023-05-14T13:57:15;23.60;47.30
5899;DHT22;2975;50.956;6.962;2023-05-14T13:59:41;23.50;47.70
5899;DHT22;2975;50.956;6.962;2023-05-14T14:02:06;23.70;48.10
5899;DHT22;2975;50.956;6.962;2023-05-14T14:04:32;23.60;47.70
5899;DHT22;2975;50.956;6.962;2023-05-14T14:06:58;23.40;46.70
5899;DHT22;2975;50.956;6.962;2023-05-14T14:09:24;23.10;48.10
5899;DHT22;2975;50.956;6.962;2023-05-14T14:11:49;22.90;47.00
5899;DHT22;2975;50.956;6.962;2023-05-14T14:14:15;23.00;48.10
5899;DHT22;2975;50.956;6.962;2023-05-14T14:16:41;23.00;47.50
5899;DHT22;2975;50.956;6.962;2023-05-14T14:19:07;23.20;47.30
5899;DHT22;2975;50.956;6.962;2023-05-14T14:21:33;23.20;46.20
5899;DHT22;2975;50.956;6.962;2023-05-14T14:24:02;23.30;46.90
5899;DHT22;2975;50.956;6.962;2023-05-14T14:26:28;23.50;48.10
5899;DHT22;2975;50.956;6.962;2023-05-14T14:28:54;23.30;48.10
5899;DHT22;2975;50.956;6.962;2023-05-14T14:31:20;23.30;48.10
5899;DHT22;2975;50.956;6.962;2023-05-14T14:33:46;23.00;48.70
5899;DHT22;2975;50.956;6.962;2023-05-14T14:36:11;22.90;48.80
5899;DHT22;2975;50.956;6.962;2023-05-14T14:38:37;22.80;48.50
5899;DHT22;2975;50.956;6.962;2023-05-14T14:41:06;22.70;49.00
5899;DHT22;2975;50.956;6.962;2023-05-14T14:43:33;22.80;49.60
5899;DHT22;2975;50.956;6.962;2023-05-14T14:45:59;23.00;49.00
5899;DHT22;2975;50.956;6.962;2023-05-14T14:50:51;23.10;48.00
5899;DHT22;2975;50.956;6.962;2023-05-14T14:53:18;23.30;49.20
5899;DHT22;2975;50.956;6.962;2023-05-14T14:55:43;23.60;47.70
5899;DHT22;2975;50.956;6.962;2023-05-14T14:58:09;23.60;46.30
5899;DHT22;2975;50.956;6.962;2023-05-14T15:00:34;23.40;46.90
5899;DHT22;2975;50.956;6.962;2023-05-14T15:03:00;23.40;46.80
5899;DHT22;2975;50.956;6.962;2023-05-14T15:05:26;23.30;46.80
5899;DHT22;2975;50.956;6.962;2023-05-14T15:07:51;23.30;47.20
5899;DHT22;2975;50.956;6.962;2023-05-14T15:10:17;23.30;47.00
5899;DHT22;2975;50.956;6.962;2023-05-14T15:12:42;23.30;47.70
5899;DHT22;2975;50.956;6.962;2023-05-14T15:15:08;23.30;47.80
5899;DHT22;2975;50.956;6.962;2023-05-14T15:17:34;23.10;48.30
5899;DHT22;2975;50.956;6.962;2023-05-14T15:20:00;23.10;48.80
5899;DHT22;2975;50.956;6.962;2023-05-14T15:22:25;23.00;50.20
5899;DHT22;2975;50.956;6.962;2023-05-14T15:24:51;23.00;50.20
5899;DHT22;2975;50.956;6.962;2023-05-14T15:27:16;22.90;49.80
5899;DHT22;2975;50.956;6.962;2023-05-14T15:29:42;22.70;50.10
5899;DHT22;2975;50.956;6.962;2023-05-14T15:32:08;23.00;50.40
5899;DHT22;2975;50.956;6.962;2023-05-14T15:34:33;23.10;50.50
5899;DHT22;2975;50.956;6.962;2023-05-14T15:36:59;23.00;51.60
5899;DHT22;2975;50.956;6.962;2023-05-14T15:39:24;23.00;49.90
5899;DHT22;2975;50.956;6.962;2023-05-14T15:41:50;23.10;50.30
5899;DHT22;2975;50.956;6.962;2023-05-14T15:44:15;23.10;49.50
5899;DHT22;2975;50.956;6.962;2023-05-14T15:46:41;23.20;49.00
5899;DHT22;2975;50.956;6.962;2023-05-14T15:49:07;23.30;48.30
5899;DHT22;2975;50.956;6.962;2023-05-14T15:51:33;23.20;47.80
5899;DHT22;2975;50.956;6.962;2023-05-14T15:53:59;23.00;48.30
5899;DHT22;2975;50.956;6.962;2023-05-14T15:56:24;22.90;48.10
5899;DHT22;2975;50.956;6.962;2023-05-14T15:58:50;23.00;50.30
5899;DHT22;2975;50.956;6.962;2023-05-14T16:01:17;22.90;52.70
5899;DHT22;2975;50.956;6.962;2023-05-14T16:03:42;22.90;53.30
5899;DHT22;2975;50.956;6.962;2023-05-14T16:06:08;22.90;53.90
5899;DHT22;2975;50.956;6.962;2023-05-14T16:08:34;22.70;52.10